Pagrindinis puslapis
METAR-TAF:

METAR-TAF

Oro uostai :

Kwajalein, Maršalo salos

platuma: 08-43N, ilguma: 167-44E, Aukštis: 3 m

Dabartinis oras

Ataskaita buvo paskelbta 28 minutes, ne 09:40 UTC
Vėjas 8 kt iš Rytų/Šiaurės Rytų
Temperatūra 28°C
Drėgmė 84%
Slėgis 1012 hPa
Matomumas: 16.1 km
Išsisklaidę debesys ne aukštis 2100 ft
Išsisklaidę debesys ne aukštis 2900 ft
Su prošvaistėmis ne aukštis 6000 ft

METAR: PKWA 220940Z AUTO 06008KT 10SM SCT021 SCT029 BKN060 28/25 A2989 RMK AO2 T02840247

Laikas: 22:08 (10:08 UTC)

Prognozė

Ataskaita buvo paskelbta 4 valandos ir 48 minutes, ne 05:20 UTC
Prognozė galioja nuo 22 metu 06 UTC su 23 metu 06 UTC
Vėjas 15 kt iš Rytų
Matomumas: 10 km
Išsisklaidę debesys ne aukštis 1200 ft
Su prošvaistėmis ne aukštis 5000 ft
Liūtis kaimynystėje
Laikinai
nuo 22 metu 06 UTC su 22 metu 08 UTC
Vėjas 15 kt nuo kintamojo kryptimis su gūsio iki 25 kt
Matomumas: 6.4 km
Su prošvaistėmis ne aukštis 1500 ft
lietus,

TAF: PKWA 220520Z 2206/2306 10015KT P6SM VCSH SCT012 BKN050 TEMPO 2206/2208 VRB15G25KT 4SM SHRA BKN015

Orai ataskaitas ir orų prognozės (METAR, TAF).

turimą stotys yra geltonos ir raudonos taškus žemėlapyje.

Perkelti pele per norėdami pamatyti stoties vardą.

Tada spustelėkite, norėdami matyti oro stebėjimo ir prognozės.

Norėdami pakeisti žemėlapį: spustelėkite ant žalios mygtukų su juodo kryžiaus žemyn,; žalią mygtuką su brūkšneliu, jei norite nutolinti; arba žalių rodyklių gretimoms žemėlapius.


METAR-TAF: